Puisoye, Argentina
Current Conditions -  °F | °C
As of 12:00 PM on Monday 24 Nov 2014 (Local Time) from SARC Reporting Station
Broken Clouds Broken Clouds  
Wind Chill: 90°   Ceiling: 20000
Heat Index: 92°   Visibility: 6mi
Dew Point: 66°   Wind: 14mph
Humidity: 46%   Direction: 50°NE
Pressure: 29.77"   Gusts: NA
Location:  27.88°S, 57.87°W
Report Text: SARC 241500Z 05012KT 320V120 9999 FEW020BKN200 32/19 Q1008
Loading
Personal Weather Stations






























Interactive Weather Map New forecast layout! Learn more

10-Day Weather Forecast

Advertisements
Track Severe Weather on mobile